Time;durP1;ratioP1;P1;durP2;ratioP2;P2;SDS_P1;SDS_P2;PMS_P1;PMS_P2;Temp;Humidity;BMP_temperature;BMP_pressure;BME280_temperature;BME280_humidity;BME280_pressure;Samples;Min_cycle;Max_cycle;Signal;HPM_P1;HPM_P2
2023/09/22 00:00:41;;;;;;;;;;;14.80;99.90;;;;;;5057881;28;19913;-76
2023/09/22 00:03:08;;;;;;;;;;;14.80;99.90;;;;;;5056580;28;19913;-76
2023/09/22 00:05:33;;;;;;;;;;;14.80;99.90;;;;;;5058109;28;19962;-76
2023/09/22 00:07:59;;;;;;;;;;;14.80;99.90;;;;;;5058271;28;19958;-77
2023/09/22 00:10:24;;;;;;;;;;;14.80;99.90;;;;;;5057906;28;19917;-76
2023/09/22 00:12:50;;;;;;;;;;;14.80;99.90;;;;;;5057879;28;19962;-77
2023/09/22 00:15:15;;;;;;;;;;;14.80;99.90;;;;;;5057574;28;20379;-76
2023/09/22 00:17:41;;;;;;;;;;;14.80;99.90;;;;;;5057650;28;19908;-76
2023/09/22 00:20:08;;;;;;;;;;;14.80;99.90;;;;;;5057160;28;19913;-76
2023/09/22 00:22:34;;;;;;;;;;;14.80;99.90;;;;;;5057613;28;19913;-77
2023/09/22 00:25:00;;;;;;;;;;;14.80;99.90;;;;;;5057560;28;19909;-76
2023/09/22 00:27:26;;;;;;;;;;;14.80;99.90;;;;;;5072563;28;19924;-77
2023/09/22 00:29:51;;;;;;;;;;;14.80;99.90;;;;;;5057325;28;19916;-76
2023/09/22 00:32:17;;;;;;;;;;;14.80;99.90;;;;;;5057237;28;20277;-77
2023/09/22 00:34:42;;;;;;;;;;;14.70;99.90;;;;;;5057245;28;19970;-77
2023/09/22 00:37:08;;;;;;;;;;;14.70;99.90;;;;;;5057276;28;19947;-76
2023/09/22 00:39:33;;;;;;;;;;;14.70;99.90;;;;;;5089310;28;19909;-77
2023/09/22 00:42:01;;;;;;;;;;;14.70;99.90;;;;;;5057213;28;19959;-77
2023/09/22 00:44:27;;;;;;;;;;;14.60;99.90;;;;;;5056922;28;20012;-77
2023/09/22 00:46:53;;;;;;;;;;;14.70;99.90;;;;;;5055933;28;19948;-76
2023/09/22 00:49:18;;;;;;;;;;;14.60;99.90;;;;;;5056167;28;20381;-76
2023/09/22 00:51:44;;;;;;;;;;;14.60;99.90;;;;;;5072364;28;20002;-76
2023/09/22 00:54:10;;;;;;;;;;;14.70;99.90;;;;;;5068981;28;20401;-76
2023/09/22 00:56:36;;;;;;;;;;;14.70;99.90;;;;;;5047751;28;19960;-76
2023/09/22 00:59:01;;;;;;;;;;;14.70;99.90;;;;;;5088982;28;20832;-76
2023/09/22 01:01:27;;;;;;;;;;;14.70;99.90;;;;;;5089148;28;19909;-76
2023/09/22 01:03:53;;;;;;;;;;;14.60;99.90;;;;;;5056524;28;19916;-76
2023/09/22 01:06:18;;;;;;;;;;;14.70;99.90;;;;;;5088688;28;20437;-76
2023/09/22 01:08:44;;;;;;;;;;;14.60;99.90;;;;;;5056545;28;19962;-76
2023/09/22 01:11:09;;;;;;;;;;;14.60;99.90;;;;;;5056605;28;19956;-76
2023/09/22 01:13:35;;;;;;;;;;;14.60;99.90;;;;;;5056637;28;19959;-77
2023/09/22 01:16:01;;;;;;;;;;;14.60;99.90;;;;;;5056647;28;19916;-77
2023/09/22 01:18:27;;;;;;;;;;;14.60;99.90;;;;;;5055962;28;19912;-76
2023/09/22 01:20:54;;;;;;;;;;;14.60;99.90;;;;;;5055170;28;20380;-76
2023/09/22 01:23:20;;;;;;;;;;;14.70;99.90;;;;;;5054949;28;20442;-76
2023/09/22 01:25:46;;;;;;;;;;;14.70;99.90;;;;;;5056594;28;19909;-76
2023/09/22 01:28:12;;;;;;;;;;;14.70;99.90;;;;;;5054954;28;19935;-76
2023/09/22 01:30:40;;;;;;;;;;;14.70;99.90;;;;;;5056700;28;19980;-76
2023/09/22 01:33:06;;;;;;;;;;;14.70;99.90;;;;;;5054926;28;19977;-76
2023/09/22 01:35:32;;;;;;;;;;;14.70;99.90;;;;;;5056338;28;20538;-76
2023/09/22 01:38:27;;;;;;;;;;;14.70;99.90;;;;;;5056049;28;19935;-76
2023/09/22 01:40:54;;;;;;;;;;;14.70;99.90;;;;;;5055473;28;19909;-76
2023/09/22 01:43:19;;;;;;;;;;;14.60;99.90;;;;;;5056086;28;20012;-76
2023/09/22 01:45:45;;;;;;;;;;;14.70;99.90;;;;;;5056046;28;19944;-75
2023/09/22 01:48:11;;;;;;;;;;;14.70;99.90;;;;;;5054706;28;19944;-76
2023/09/22 01:50:40;;;;;;;;;;;14.70;99.90;;;;;;5051268;28;19913;-76
2023/09/22 01:53:08;;;;;;;;;;;14.70;99.90;;;;;;5055869;28;19908;-77
2023/09/22 01:55:34;;;;;;;;;;;14.70;99.90;;;;;;5055877;28;19980;-76
2023/09/22 01:58:00;;;;;;;;;;;14.70;99.90;;;;;;5055868;28;20014;-76
2023/09/22 02:00:26;;;;;;;;;;;14.70;99.90;;;;;;5055345;28;20039;-76
2023/09/22 02:02:52;;;;;;;;;;;14.70;99.90;;;;;;5055425;28;19958;-76
2023/09/22 02:05:18;;;;;;;;;;;14.60;99.90;;;;;;5055581;28;20369;-76
2023/09/22 02:07:43;;;;;;;;;;;14.70;99.90;;;;;;5088044;28;19912;-76
2023/09/22 02:10:13;;;;;;;;;;;14.60;99.90;;;;;;5087630;28;19913;-76
2023/09/22 02:12:40;;;;;;;;;;;14.60;99.90;;;;;;5055662;28;20691;-76
2023/09/22 02:15:09;;;;;;;;;;;14.60;99.90;;;;;;5055678;28;20003;-76
2023/09/22 02:17:35;;;;;;;;;;;14.50;99.90;;;;;;5055619;28;19913;-76
2023/09/22 02:20:02;;;;;;;;;;;14.50;99.90;;;;;;5055676;28;19939;-76
2023/09/22 02:22:28;;;;;;;;;;;14.50;99.90;;;;;;5087659;28;20296;-76
2023/09/22 02:24:53;;;;;;;;;;;14.40;99.90;;;;;;5067725;28;19936;-75
2023/09/22 02:27:19;;;;;;;;;;;14.40;99.90;;;;;;5052996;28;20590;-76
2023/09/22 02:29:44;;;;;;;;;;;14.40;99.90;;;;;;5067577;28;19936;-76
2023/09/22 02:32:10;;;;;;;;;;;14.40;99.90;;;;;;5084829;28;19940;-76
2023/09/22 02:34:36;;;;;;;;;;;14.40;99.90;;;;;;5055712;28;19955;-77
2023/09/22 02:37:02;;;;;;;;;;;14.40;99.90;;;;;;5087658;28;19915;-76
2023/09/22 02:39:27;;;;;;;;;;;14.40;99.90;;;;;;5055510;28;19987;-75
2023/09/22 02:41:53;;;;;;;;;;;14.30;99.90;;;;;;5055499;28;19963;-76
2023/09/22 02:44:18;;;;;;;;;;;14.30;99.90;;;;;;5055419;28;19916;-76
2023/09/22 02:46:45;;;;;;;;;;;14.30;99.90;;;;;;5055752;28;19967;-76
2023/09/22 02:49:10;;;;;;;;;;;14.30;99.90;;;;;;5070656;28;19920;-75
2023/09/22 02:51:36;;;;;;;;;;;14.30;99.90;;;;;;5087422;28;19912;-75
2023/09/22 02:54:02;;;;;;;;;;;14.20;99.90;;;;;;5055502;28;19923;-77
2023/09/22 02:56:28;;;;;;;;;;;14.20;99.90;;;;;;5055623;28;20398;-77
2023/09/22 02:58:53;;;;;;;;;;;14.10;99.90;;;;;;5055551;28;20395;-76
2023/09/22 03:01:19;;;;;;;;;;;14.10;99.90;;;;;;5087131;28;19919;-76
2023/09/22 03:03:45;;;;;;;;;;;14.10;99.90;;;;;;5054050;28;20380;-78
2023/09/22 03:06:14;;;;;;;;;;;14.10;99.90;;;;;;5053445;28;20012;-76
2023/09/22 03:08:39;;;;;;;;;;;14.10;99.90;;;;;;5053422;28;19909;-76
2023/09/22 03:11:05;;;;;;;;;;;14.10;99.90;;;;;;5054830;28;19920;-77
2023/09/22 03:13:31;;;;;;;;;;;14.00;99.90;;;;;;5057962;28;19916;-76
2023/09/22 03:15:57;;;;;;;;;;;14.00;99.90;;;;;;5058678;28;19916;-76
2023/09/22 03:18:23;;;;;;;;;;;14.00;99.90;;;;;;5058678;28;20450;-76
2023/09/22 03:20:49;;;;;;;;;;;14.00;99.90;;;;;;5058753;28;19995;-76
2023/09/22 03:23:15;;;;;;;;;;;14.00;99.90;;;;;;5058720;28;19999;-78
2023/09/22 03:25:41;;;;;;;;;;;14.00;99.90;;;;;;5058593;28;19909;-76
2023/09/22 03:28:06;;;;;;;;;;;14.00;99.90;;;;;;5090718;28;19928;-75
2023/09/22 03:30:32;;;;;;;;;;;14.00;99.90;;;;;;5058544;28;19917;-74
2023/09/22 03:32:58;;;;;;;;;;;14.00;99.90;;;;;;5057004;28;19920;-77
2023/09/22 03:35:25;;;;;;;;;;;14.00;99.90;;;;;;5058421;28;19913;-77
2023/09/22 03:37:52;;;;;;;;;;;14.10;99.90;;;;;;5058671;28;19916;-76
2023/09/22 03:40:30;;;;;;;;;;;14.10;99.90;;;;;;5090645;28;19913;-76
2023/09/22 03:42:56;;;;;;;;;;;14.10;99.90;;;;;;5058105;28;19960;-76
2023/09/22 03:45:22;;;;;;;;;;;14.10;99.90;;;;;;5058281;28;19909;-76
2023/09/22 03:47:47;;;;;;;;;;;14.10;99.90;;;;;;5069968;28;19920;-77
2023/09/22 03:50:13;;;;;;;;;;;14.10;99.90;;;;;;5073167;28;19912;-76
2023/09/22 03:52:40;;;;;;;;;;;14.10;99.90;;;;;;5058298;28;19913;-77
2023/09/22 03:55:06;;;;;;;;;;;14.10;99.90;;;;;;5057892;28;19908;-76
2023/09/22 03:57:31;;;;;;;;;;;14.10;99.90;;;;;;5058174;28;19909;-76
2023/09/22 03:59:57;;;;;;;;;;;14.10;99.90;;;;;;5057883;28;19909;-77
2023/09/22 04:02:22;;;;;;;;;;;14.10;99.90;;;;;;5057912;28;19913;-76
2023/09/22 04:04:48;;;;;;;;;;;14.10;99.90;;;;;;5089916;28;19913;-77
2023/09/22 04:07:14;;;;;;;;;;;14.10;99.90;;;;;;5057937;28;19946;-76
2023/09/22 04:09:40;;;;;;;;;;;14.10;99.90;;;;;;5057907;28;20304;-76
2023/09/22 04:12:06;;;;;;;;;;;14.10;99.90;;;;;;5057570;28;19967;-77
2023/09/22 04:14:33;;;;;;;;;;;14.10;99.90;;;;;;5090251;28;20062;-77
2023/09/22 04:17:00;;;;;;;;;;;14.00;99.90;;;;;;5057750;28;19913;-76
2023/09/22 04:19:25;;;;;;;;;;;14.10;99.90;;;;;;5057909;28;19920;-76
2023/09/22 04:21:51;;;;;;;;;;;14.00;99.90;;;;;;5057559;28;19912;-76
2023/09/22 04:24:20;;;;;;;;;;;14.00;99.90;;;;;;5088628;28;19908;-76
2023/09/22 04:26:48;;;;;;;;;;;14.00;99.90;;;;;;5057492;28;19925;-76
2023/09/22 04:29:14;;;;;;;;;;;13.90;99.90;;;;;;5057458;28;20363;-76
2023/09/22 04:31:39;;;;;;;;;;;13.90;99.90;;;;;;5057329;28;19917;-76
2023/09/22 04:34:05;;;;;;;;;;;13.90;99.90;;;;;;5057334;28;19912;-76
2023/09/22 04:36:31;;;;;;;;;;;13.90;99.90;;;;;;5057199;28;20361;-76
2023/09/22 04:38:56;;;;;;;;;;;13.80;99.90;;;;;;5057202;28;19909;-76
2023/09/22 04:41:22;;;;;;;;;;;13.80;99.90;;;;;;5057289;28;19958;-76
2023/09/22 04:43:48;;;;;;;;;;;13.70;99.90;;;;;;5055575;28;19916;-76
2023/09/22 04:46:15;;;;;;;;;;;13.70;99.90;;;;;;5057206;28;19912;-76
2023/09/22 04:48:41;;;;;;;;;;;13.70;99.90;;;;;;5056792;28;19913;-76
2023/09/22 04:51:06;;;;;;;;;;;13.70;99.90;;;;;;5089039;28;19927;-76
2023/09/22 04:53:32;;;;;;;;;;;13.70;99.90;;;;;;5056790;28;19955;-76
2023/09/22 04:55:58;;;;;;;;;;;13.70;99.90;;;;;;5055672;28;19909;-76
2023/09/22 04:58:24;;;;;;;;;;;13.70;99.90;;;;;;5056951;28;19920;-76
2023/09/22 05:00:57;;;;;;;;;;;13.70;99.90;;;;;;5056844;28;19909;-77
2023/09/22 05:03:24;;;;;;;;;;;13.80;99.90;;;;;;5049961;28;19962;-76
2023/09/22 05:05:51;;;;;;;;;;;13.80;99.90;;;;;;5056600;28;19999;-77
2023/09/22 05:08:16;;;;;;;;;;;13.80;99.90;;;;;;5056736;28;19913;-76
2023/09/22 05:10:46;;;;;;;;;;;13.80;99.90;;;;;;5056533;28;20296;-76
2023/09/22 05:13:13;;;;;;;;;;;13.80;99.90;;;;;;5056703;28;19935;-76
2023/09/22 05:15:41;;;;;;;;;;;13.80;99.90;;;;;;5088862;28;19909;-77
2023/09/22 05:18:11;;;;;;;;;;;13.80;99.90;;;;;;5056379;28;20015;-77
2023/09/22 05:20:36;;;;;;;;;;;13.90;99.90;;;;;;5056621;28;19913;-77
2023/09/22 05:23:03;;;;;;;;;;;13.80;99.90;;;;;;5056435;28;20380;-76
2023/09/22 05:25:30;;;;;;;;;;;13.90;99.90;;;;;;5056059;28;20050;-76
2023/09/22 05:27:56;;;;;;;;;;;13.90;99.90;;;;;;5056236;28;19978;-76
2023/09/22 05:30:23;;;;;;;;;;;13.90;99.90;;;;;;5088434;28;20547;-76
2023/09/22 05:32:48;;;;;;;;;;;13.90;99.90;;;;;;5056132;28;19959;-77
2023/09/22 05:35:14;;;;;;;;;;;13.90;99.90;;;;;;5088150;28;19909;-77
2023/09/22 05:37:39;;;;;;;;;;;13.90;99.90;;;;;;5071360;28;19913;-76
2023/09/22 05:40:11;;;;;;;;;;;13.90;99.90;;;;;;5055990;28;19997;-77
2023/09/22 05:42:37;;;;;;;;;;;14.00;99.90;;;;;;5071602;28;19920;-76
2023/09/22 05:45:03;;;;;;;;;;;13.90;99.90;;;;;;5088107;28;19945;-77
2023/09/22 05:47:29;;;;;;;;;;;13.80;99.90;;;;;;5054840;28;19916;-77
2023/09/22 05:49:55;;;;;;;;;;;13.80;99.90;;;;;;5056125;28;19913;-77
2023/09/22 05:52:21;;;;;;;;;;;13.80;99.90;;;;;;5056175;28;19924;-76
2023/09/22 05:54:47;;;;;;;;;;;13.80;99.90;;;;;;5056350;28;19913;-77
2023/09/22 05:57:13;;;;;;;;;;;13.90;99.90;;;;;;5056167;28;20415;-78
2023/09/22 05:59:38;;;;;;;;;;;13.80;99.90;;;;;;5056156;28;19932;-77
2023/09/22 06:02:05;;;;;;;;;;;13.90;99.90;;;;;;5055903;28;19913;-78
2023/09/22 06:04:32;;;;;;;;;;;13.90;99.90;;;;;;5088179;28;20380;-77
2023/09/22 06:06:58;;;;;;;;;;;14.00;99.90;;;;;;5055828;28;20004;-76
2023/09/22 06:09:24;;;;;;;;;;;14.00;99.90;;;;;;5055894;28;19912;-77
2023/09/22 06:11:49;;;;;;;;;;;14.00;99.90;;;;;;5055432;28;19927;-77
2023/09/22 06:14:15;;;;;;;;;;;14.00;99.90;;;;;;5055996;28;19913;-77
2023/09/22 06:16:41;;;;;;;;;;;14.00;99.90;;;;;;5055677;28;19909;-77
2023/09/22 06:19:10;;;;;;;;;;;14.00;99.90;;;;;;5055562;28;19948;-77
2023/09/22 06:21:36;;;;;;;;;;;14.00;99.90;;;;;;5055623;28;19916;-78
2023/09/22 06:24:01;;;;;;;;;;;14.00;99.90;;;;;;5055537;28;19909;-78
2023/09/22 06:26:27;;;;;;;;;;;14.00;99.90;;;;;;5055351;28;19923;-76
2023/09/22 06:28:52;;;;;;;;;;;14.00;99.90;;;;;;5055254;28;19917;-76
2023/09/22 06:31:18;;;;;;;;;;;14.00;99.90;;;;;;5055431;28;19921;-76
2023/09/22 06:33:44;;;;;;;;;;;14.00;99.90;;;;;;5053862;28;19913;-75
2023/09/22 06:36:09;;;;;;;;;;;14.00;99.90;;;;;;5046977;28;19927;-75
2023/09/22 06:38:35;;;;;;;;;;;14.10;99.90;;;;;;5053271;28;20014;-75
2023/09/22 06:41:01;;;;;;;;;;;14.20;99.90;;;;;;5054117;28;19921;-76
2023/09/22 06:43:27;;;;;;;;;;;14.30;99.90;;;;;;5053916;28;19920;-76
2023/09/22 06:45:53;;;;;;;;;;;14.40;99.90;;;;;;5087646;28;19909;-76
2023/09/22 06:48:25;;;;;;;;;;;14.50;99.90;;;;;;5057898;28;19932;-76
2023/09/22 06:50:51;;;;;;;;;;;14.60;99.90;;;;;;5057737;28;19943;-76
2023/09/22 06:53:18;;;;;;;;;;;14.60;99.90;;;;;;5057986;28;19912;-76
2023/09/22 06:55:44;;;;;;;;;;;14.60;99.90;;;;;;5058938;28;20373;-76
2023/09/22 06:58:09;;;;;;;;;;;14.70;99.90;;;;;;5057072;28;19912;-76
2023/09/22 07:00:35;;;;;;;;;;;14.80;99.90;;;;;;5059104;28;20007;-76
2023/09/22 07:03:01;;;;;;;;;;;14.80;99.90;;;;;;5059002;28;20046;-75
2023/09/22 07:05:26;;;;;;;;;;;14.80;99.90;;;;;;5058798;28;19962;-76
2023/09/22 07:07:52;;;;;;;;;;;14.80;99.90;;;;;;5060348;28;19962;-76
2023/09/22 07:10:18;;;;;;;;;;;14.80;99.90;;;;;;5061799;28;19916;-76
2023/09/22 07:12:44;;;;;;;;;;;14.80;99.90;;;;;;5042737;28;19912;-77
2023/09/22 07:15:10;;;;;;;;;;;14.80;99.90;;;;;;5056423;28;19923;-76
2023/09/22 07:17:35;;;;;;;;;;;14.80;99.90;;;;;;5057323;28;19912;-76
2023/09/22 07:20:01;;;;;;;;;;;14.70;99.90;;;;;;5058147;28;20361;-76
2023/09/22 07:22:33;;;;;;;;;;;14.70;99.90;;;;;;5057831;28;19966;-77
2023/09/22 07:24:59;;;;;;;;;;;14.80;99.90;;;;;;5055221;28;19909;-76
2023/09/22 07:27:24;;;;;;;;;;;14.90;99.90;;;;;;5055543;28;19964;-76
2023/09/22 07:29:50;;;;;;;;;;;15.10;99.90;;;;;;5057529;28;20423;-76
2023/09/22 07:32:16;;;;;;;;;;;15.30;99.90;;;;;;5056676;28;19916;-77
2023/09/22 07:34:41;;;;;;;;;;;15.40;99.90;;;;;;5056937;28;19944;-76
2023/09/22 07:37:11;;;;;;;;;;;15.50;99.90;;;;;;5055813;28;20002;-76
2023/09/22 07:39:39;;;;;;;;;;;15.60;99.90;;;;;;5056736;28;19913;-76
2023/09/22 07:42:05;;;;;;;;;;;15.70;99.90;;;;;;5055734;28;19909;-77
2023/09/22 07:44:31;;;;;;;;;;;15.70;99.90;;;;;;5071516;28;19919;-76
2023/09/22 07:46:58;;;;;;;;;;;15.80;99.90;;;;;;5057308;28;20011;-76
2023/09/22 07:49:25;;;;;;;;;;;15.90;99.90;;;;;;5055489;28;19988;-77
2023/09/22 07:51:51;;;;;;;;;;;16.10;99.90;;;;;;5057179;28;19912;-76
2023/09/22 07:54:18;;;;;;;;;;;16.10;99.90;;;;;;5056335;28;19959;-77
2023/09/22 07:56:46;;;;;;;;;;;16.30;99.90;;;;;;5057094;28;19908;-75
2023/09/22 07:59:13;;;;;;;;;;;16.50;99.90;;;;;;5056970;28;19913;-76
2023/09/22 08:01:42;;;;;;;;;;;16.90;99.90;;;;;;5056991;28;19909;-75
2023/09/22 08:04:08;;;;;;;;;;;17.20;99.90;;;;;;5056074;28;19909;-75
2023/09/22 08:06:34;;;;;;;;;;;17.40;99.90;;;;;;5055624;28;19912;-75
2023/09/22 08:09:00;;;;;;;;;;;17.60;99.90;;;;;;5055473;28;19912;-76
2023/09/22 08:11:26;;;;;;;;;;;17.80;99.90;;;;;;5056787;28;19912;-76
2023/09/22 08:13:51;;;;;;;;;;;17.80;99.90;;;;;;5055975;28;19920;-75
2023/09/22 08:16:18;;;;;;;;;;;17.60;99.90;;;;;;5053781;28;19913;-76
2023/09/22 08:18:44;;;;;;;;;;;17.60;99.90;;;;;;5056486;28;19913;-76
2023/09/22 08:21:09;;;;;;;;;;;17.60;99.90;;;;;;5054872;28;19909;-76
2023/09/22 08:23:35;;;;;;;;;;;17.60;99.90;;;;;;5054511;28;19909;-75
2023/09/22 08:26:05;;;;;;;;;;;17.70;99.90;;;;;;5055767;28;19913;-75
2023/09/22 08:28:32;;;;;;;;;;;17.90;99.90;;;;;;5055758;28;20369;-74
2023/09/22 08:30:57;;;;;;;;;;;18.00;99.90;;;;;;5051549;28;19920;-74
2023/09/22 08:33:23;;;;;;;;;;;18.20;99.90;;;;;;5051203;28;21068;-75
2023/09/22 08:35:48;;;;;;;;;;;18.40;99.90;;;;;;5055213;28;20435;-74
2023/09/22 08:38:14;;;;;;;;;;;18.50;99.90;;;;;;5082989;28;20699;-75
2023/09/22 08:40:40;;;;;;;;;;;18.60;99.90;;;;;;5056308;28;19963;-75
2023/09/22 08:43:05;;;;;;;;;;;18.60;99.90;;;;;;5055153;28;20034;-76
2023/09/22 08:45:31;;;;;;;;;;;18.20;99.90;;;;;;5056418;28;20377;-75
2023/09/22 08:47:57;;;;;;;;;;;18.20;99.90;;;;;;5052404;28;20012;-75
2023/09/22 08:50:22;;;;;;;;;;;18.20;99.90;;;;;;5054993;28;19916;-75
2023/09/22 08:52:51;;;;;;;;;;;18.20;99.90;;;;;;5054213;28;19913;-75
2023/09/22 08:55:17;;;;;;;;;;;18.30;99.90;;;;;;5054773;28;19909;-74
2023/09/22 08:57:44;;;;;;;;;;;18.50;99.90;;;;;;5049583;28;19920;-76
2023/09/22 09:00:20;;;;;;;;;;;18.50;99.90;;;;;;5053454;28;19963;-75
2023/09/22 09:02:46;;;;;;;;;;;18.70;99.90;;;;;;5053119;28;19912;-75
2023/09/22 09:05:19;;;;;;;;;;;18.80;99.90;;;;;;5054665;28;19999;-75
2023/09/22 09:07:46;;;;;;;;;;;18.90;99.90;;;;;;5053874;28;19908;-74
2023/09/22 09:10:23;;;;;;;;;;;18.80;99.90;;;;;;5054957;28;19909;-75
2023/09/22 09:12:49;;;;;;;;;;;18.70;99.90;;;;;;5055071;28;19924;-74
2023/09/22 09:15:15;;;;;;;;;;;18.70;99.90;;;;;;5055596;28;19916;-74
2023/09/22 09:17:40;;;;;;;;;;;18.80;99.90;;;;;;5055555;28;19916;-74
2023/09/22 09:20:06;;;;;;;;;;;18.90;99.90;;;;;;5070688;28;19909;-75
2023/09/22 09:22:35;;;;;;;;;;;19.00;99.90;;;;;;5070718;28;19916;-74
2023/09/22 09:25:01;;;;;;;;;;;19.00;99.90;;;;;;5054778;28;20012;-74
2023/09/22 09:27:27;;;;;;;;;;;18.80;99.90;;;;;;5054193;28;20063;-74
2023/09/22 09:29:55;;;;;;;;;;;18.70;99.90;;;;;;5054911;28;19940;-76
2023/09/22 09:32:25;;;;;;;;;;;18.40;99.90;;;;;;5053791;28;19920;-76
2023/09/22 09:34:51;;;;;;;;;;;18.40;99.90;;;;;;5086850;28;19994;-75
2023/09/22 09:37:17;;;;;;;;;;;18.20;99.90;;;;;;5053849;28;19909;-74
2023/09/22 09:39:46;;;;;;;;;;;18.00;99.90;;;;;;5051180;28;19913;-77
2023/09/22 09:42:14;;;;;;;;;;;17.60;99.90;;;;;;5051912;28;19916;-73
2023/09/22 09:44:40;;;;;;;;;;;16.80;99.90;;;;;;5054622;28;19947;-73
2023/09/22 09:47:07;;;;;;;;;;;16.30;99.90;;;;;;5053323;28;19924;-74
2023/09/22 09:49:33;;;;;;;;;;;16.00;99.90;;;;;;5055344;28;20377;-72
2023/09/22 09:52:00;;;;;;;;;;;15.90;99.90;;;;;;5055368;28;19913;-74
2023/09/22 09:54:26;;;;;;;;;;;15.90;99.90;;;;;;5068318;28;20518;-74
2023/09/22 09:56:52;;;;;;;;;;;16.00;99.90;;;;;;5054778;28;19908;-74
2023/09/22 09:59:18;;;;;;;;;;;16.20;99.90;;;;;;5051345;28;20031;-74
2023/09/22 10:01:44;;;;;;;;;;;16.40;99.90;;;;;;5069778;28;19914;-74
2023/09/22 10:04:10;;;;;;;;;;;16.50;99.90;;;;;;5053868;28;20396;-74
2023/09/22 10:06:36;;;;;;;;;;;16.70;99.90;;;;;;5054880;28;20359;-73
2023/09/22 10:09:04;;;;;;;;;;;16.80;99.90;;;;;;5054890;28;20293;-74
2023/09/22 10:11:30;;;;;;;;;;;16.90;99.90;;;;;;5086920;28;19925;-74
2023/09/22 10:13:55;;;;;;;;;;;16.80;99.90;;;;;;5053750;28;20043;-74
2023/09/22 10:16:28;;;;;;;;;;;16.80;99.90;;;;;;5054836;28;19963;-73
2023/09/22 10:19:02;;;;;;;;;;;16.80;99.90;;;;;;5053338;28;20377;-74
2023/09/22 10:21:31;;;;;;;;;;;16.70;99.90;;;;;;5054810;28;19909;-73
2023/09/22 10:24:16;;;;;;;;;;;16.70;99.90;;;;;;5056459;28;20585;-74
2023/09/22 10:26:53;;;;;;;;;;;16.80;99.90;;;;;;5057492;28;19931;-74
2023/09/22 10:29:37;;;;;;;;;;;16.70;99.90;;;;;;5057122;28;19912;-74
2023/09/22 10:32:14;;;;;;;;;;;16.70;99.90;;;;;;5070292;28;19935;-73
2023/09/22 10:34:58;;;;;;;;;;;16.70;99.90;;;;;;5056635;28;20294;-73
2023/09/22 10:37:28;;;;;;;;;;;16.80;99.90;;;;;;5057730;28;19913;-72
2023/09/22 10:39:56;;;;;;;;;;;17.00;99.90;;;;;;5057901;28;19913;-73
2023/09/22 10:42:22;;;;;;;;;;;17.00;99.90;;;;;;5072729;28;19913;-74
2023/09/22 10:45:02;;;;;;;;;;;16.90;99.90;;;;;;5057164;28;19932;-73
2023/09/22 10:47:43;;;;;;;;;;;17.00;99.90;;;;;;5057044;28;20490;-74
2023/09/22 10:50:32;;;;;;;;;;;17.20;99.90;;;;;;5073545;28;19909;-74
2023/09/22 10:52:58;;;;;;;;;;;17.50;99.90;;;;;;5083417;28;19943;-74
2023/09/22 10:55:24;;;;;;;;;;;17.80;99.90;;;;;;5057433;28;19919;-73
2023/09/22 10:57:50;;;;;;;;;;;18.00;99.90;;;;;;5054653;28;19935;-74
2023/09/22 11:00:18;;;;;;;;;;;18.20;99.90;;;;;;5055303;28;19913;-74
2023/09/22 11:02:43;;;;;;;;;;;18.40;99.90;;;;;;5054514;28;20377;-74
2023/09/22 11:05:12;;;;;;;;;;;18.50;99.90;;;;;;5058238;28;20288;-74
2023/09/22 11:07:38;;;;;;;;;;;18.90;99.90;;;;;;5058426;28;19913;-73
2023/09/22 11:10:04;;;;;;;;;;;19.20;99.90;;;;;;5058185;28;19959;-75
2023/09/22 11:12:31;;;;;;;;;;;19.40;99.90;;;;;;5055231;28;20011;-74
2023/09/22 11:14:57;;;;;;;;;;;19.40;99.90;;;;;;5056331;28;19952;-74
2023/09/22 11:17:35;;;;;;;;;;;19.50;99.90;;;;;;5055911;28;19917;-74
2023/09/22 11:20:03;;;;;;;;;;;19.40;99.90;;;;;;5057019;28;19908;-74
2023/09/22 11:22:31;;;;;;;;;;;19.30;99.90;;;;;;5058084;28;19909;-71
2023/09/22 11:24:57;;;;;;;;;;;19.60;99.90;;;;;;5057573;28;19977;-73
2023/09/22 11:27:23;;;;;;;;;;;19.70;99.90;;;;;;5057937;28;19975;-73
2023/09/22 11:29:48;;;;;;;;;;;19.50;99.90;;;;;;5054169;28;19924;-73
2023/09/22 11:32:14;;;;;;;;;;;19.10;99.90;;;;;;5056298;28;20442;-73
2023/09/22 11:34:46;;;;;;;;;;;19.00;99.90;;;;;;5056480;28;19916;-71
2023/09/22 11:37:11;;;;;;;;;;;19.00;99.90;;;;;;5058343;28;19962;-73
2023/09/22 11:39:37;;;;;;;;;;;18.90;99.90;;;;;;5051782;28;19913;-73
2023/09/22 11:42:03;;;;;;;;;;;19.00;99.90;;;;;;5054715;28;19917;-73
2023/09/22 11:44:29;;;;;;;;;;;19.20;99.90;;;;;;5055721;28;19913;-74
2023/09/22 11:46:55;;;;;;;;;;;19.40;99.90;;;;;;5057593;28;19916;-71
2023/09/22 11:49:20;;;;;;;;;;;19.10;99.90;;;;;;5057742;28;20386;-74
2023/09/22 11:51:50;;;;;;;;;;;19.20;99.90;;;;;;5067880;28;19919;-72
2023/09/22 11:54:17;;;;;;;;;;;19.30;99.90;;;;;;5056788;28;20397;-73
2023/09/22 11:56:43;;;;;;;;;;;19.40;99.90;;;;;;5057696;28;19909;-72
2023/09/22 11:59:13;;;;;;;;;;;19.40;99.90;;;;;;5055257;28;19916;-72
2023/09/22 12:01:39;;;;;;;;;;;19.40;99.90;;;;;;5057334;28;19909;-72
2023/09/22 12:04:05;;;;;;;;;;;19.30;99.90;;;;;;5056283;28;19971;-73
2023/09/22 12:06:31;;;;;;;;;;;19.30;99.90;;;;;;5056027;28;19913;-74
2023/09/22 12:08:58;;;;;;;;;;;19.50;99.90;;;;;;5055738;28;19952;-73
2023/09/22 12:11:24;;;;;;;;;;;19.80;99.90;;;;;;5057019;28;19956;-74
2023/09/22 12:13:50;;;;;;;;;;;19.70;99.90;;;;;;5055955;28;19913;-73
2023/09/22 12:16:15;;;;;;;;;;;19.60;99.90;;;;;;5057151;28;19913;-73
2023/09/22 12:18:41;;;;;;;;;;;19.40;99.90;;;;;;5056770;28;20007;-73
2023/09/22 12:21:06;;;;;;;;;;;19.20;99.90;;;;;;5056367;28;19943;-73
2023/09/22 12:23:33;;;;;;;;;;;19.10;99.90;;;;;;5049019;28;19920;-72
2023/09/22 12:25:59;;;;;;;;;;;18.80;99.90;;;;;;5054954;28;19909;-73
2023/09/22 12:28:24;;;;;;;;;;;18.70;99.90;;;;;;5055238;28;19913;-73
2023/09/22 12:30:53;;;;;;;;;;;18.50;99.90;;;;;;5055554;28;20450;-73
2023/09/22 12:33:19;;;;;;;;;;;18.30;99.90;;;;;;5055580;28;19909;-74
2023/09/22 12:35:44;;;;;;;;;;;18.10;99.90;;;;;;5054916;28;19915;-75
2023/09/22 12:38:10;;;;;;;;;;;18.00;99.90;;;;;;5052334;28;19913;-74
2023/09/22 12:40:36;;;;;;;;;;;17.90;99.90;;;;;;5050984;28;19917;-74
2023/09/22 12:43:02;;;;;;;;;;;17.80;99.90;;;;;;5053878;28;20324;-75
2023/09/22 12:45:31;;;;;;;;;;;17.90;99.90;;;;;;5053920;28;19916;-74
2023/09/22 12:47:57;;;;;;;;;;;17.90;99.90;;;;;;5055362;28;19909;-75
2023/09/22 12:50:22;;;;;;;;;;;18.00;99.90;;;;;;5055886;28;19916;-74
2023/09/22 12:52:48;;;;;;;;;;;18.10;99.90;;;;;;5054991;28;20289;-74
2023/09/22 12:55:13;;;;;;;;;;;18.20;99.90;;;;;;5051354;28;19925;-74
2023/09/22 12:57:39;;;;;;;;;;;18.40;99.90;;;;;;5054568;28;19915;-74
2023/09/22 13:00:06;;;;;;;;;;;18.50;99.90;;;;;;5053659;28;20296;-75
2023/09/22 13:02:31;;;;;;;;;;;18.60;99.90;;;;;;5055462;28;19967;-74
2023/09/22 13:04:57;;;;;;;;;;;18.60;99.90;;;;;;5053805;28;19920;-75
2023/09/22 13:07:22;;;;;;;;;;;18.60;99.90;;;;;;5051663;28;19959;-73
2023/09/22 13:09:48;;;;;;;;;;;18.60;99.90;;;;;;5053114;28;20091;-74
2023/09/22 13:12:14;;;;;;;;;;;18.90;99.90;;;;;;5052641;28;20325;-74
2023/09/22 13:14:40;;;;;;;;;;;19.20;99.90;;;;;;5054425;28;19913;-74
2023/09/22 13:17:05;;;;;;;;;;;19.20;99.90;;;;;;5055222;28;19909;-74
2023/09/22 13:19:31;;;;;;;;;;;19.20;99.90;;;;;;5055438;28;20384;-74
2023/09/22 13:21:57;;;;;;;;;;;19.10;99.90;;;;;;5053225;28;19990;-75
2023/09/22 13:24:22;;;;;;;;;;;19.10;99.90;;;;;;5053948;28;19909;-74
2023/09/22 13:26:49;;;;;;;;;;;19.10;99.90;;;;;;5054774;28;19978;-74
2023/09/22 13:29:15;;;;;;;;;;;19.10;99.90;;;;;;5055010;28;19913;-76
2023/09/22 13:31:41;;;;;;;;;;;19.10;99.90;;;;;;5050582;28;19967;-74
2023/09/22 13:34:08;;;;;;;;;;;19.40;99.90;;;;;;5053028;28;20459;-75
2023/09/22 13:36:34;;;;;;;;;;;19.40;99.90;;;;;;5055002;28;19919;-75
2023/09/22 13:38:59;;;;;;;;;;;19.30;99.90;;;;;;5054794;28;20765;-74
2023/09/22 13:41:25;;;;;;;;;;;19.00;99.90;;;;;;5054191;28;19909;-74
2023/09/22 13:43:50;;;;;;;;;;;19.00;99.90;;;;;;5053932;28;19951;-75
2023/09/22 13:46:16;;;;;;;;;;;19.00;99.90;;;;;;5054887;28;19935;-74
2023/09/22 13:48:42;;;;;;;;;;;19.10;99.90;;;;;;5054818;28;19931;-73
2023/09/22 13:51:11;;;;;;;;;;;19.10;99.90;;;;;;5055167;28;19920;-72
2023/09/22 13:53:40;;;;;;;;;;;19.20;99.90;;;;;;5051164;28;19915;-71
2023/09/22 13:56:13;;;;;;;;;;;19.50;99.90;;;;;;5055053;28;19916;-73
2023/09/22 13:58:39;;;;;;;;;;;19.60;99.90;;;;;;5054700;28;20353;-73
2023/09/22 14:01:11;;;;;;;;;;;19.60;99.90;;;;;;5055180;28;19913;-73
2023/09/22 14:03:37;;;;;;;;;;;19.60;99.90;;;;;;5049932;28;19940;-73
2023/09/22 14:06:02;;;;;;;;;;;19.50;99.90;;;;;;5054819;28;20867;-73
2023/09/22 14:08:28;;;;;;;;;;;19.60;99.90;;;;;;5053246;28;19913;-75
2023/09/22 14:10:55;;;;;;;;;;;19.60;99.90;;;;;;5054854;28;19921;-73
2023/09/22 14:13:20;;;;;;;;;;;19.70;99.90;;;;;;5053702;28;19909;-73